createdAt,value
2018-06-12T00:00:38.187Z,52.73
2018-06-12T00:01:38.355Z,49.56
2018-06-12T00:02:38.530Z,55.18
2018-06-12T00:03:38.684Z,43.21
2018-06-12T00:04:38.844Z,48.34
2018-06-12T00:05:39.034Z,54.20
2018-06-12T00:06:39.225Z,51.03
2018-06-12T00:07:39.381Z,48.83
2018-06-12T00:08:39.584Z,49.56
2018-06-12T00:09:39.740Z,40.53
2018-06-12T00:10:39.893Z,39.31
2018-06-12T00:11:40.060Z,55.66
2018-06-12T00:15:22.808Z,55.18
2018-06-12T00:16:22.955Z,47.85
2018-06-12T00:17:23.125Z,39.79
2018-06-12T00:18:23.299Z,53.96
2018-06-12T00:19:23.456Z,46.63
2018-06-12T00:20:23.627Z,40.28
2018-06-12T00:21:23.787Z,46.39
2018-06-12T00:22:23.953Z,50.54
2018-06-12T00:23:24.121Z,55.91
2018-06-12T00:28:14.877Z,57.86
2018-06-12T00:29:15.044Z,52.73
2018-06-12T00:30:15.230Z,52.98
2018-06-12T00:31:15.378Z,66.65
2018-06-12T00:32:15.550Z,55.42
2018-06-12T00:33:15.731Z,52.49
2018-06-12T00:34:15.874Z,55.66
2018-06-12T00:35:16.155Z,52.25
2018-06-12T00:36:16.142Z,47.12
2018-06-12T00:37:16.324Z,68.12
2018-06-12T00:38:16.534Z,49.56
2018-06-12T00:39:16.658Z,44.43
2018-06-12T00:40:16.820Z,53.22
2018-06-12T00:41:17.012Z,50.54
2018-06-12T00:44:49.436Z,52.49
2018-06-12T00:45:49.602Z,45.65
2018-06-12T00:46:49.773Z,52.00
2018-06-12T00:47:49.938Z,49.80
2018-06-12T00:48:50.117Z,57.13
2018-06-12T00:49:50.272Z,57.13
2018-06-12T00:50:50.431Z,43.21
2018-06-12T00:51:50.606Z,56.15
2018-06-12T00:52:50.777Z,48.34
2018-06-12T00:53:52.796Z,49.32
2018-06-12T00:54:51.078Z,42.48
2018-06-12T00:55:51.252Z,41.26
2018-06-12T00:56:51.415Z,41.99
2018-06-12T00:57:51.585Z,49.32
2018-06-12T01:01:24.898Z,53.22
2018-06-12T01:02:24.198Z,40.53
2018-06-12T01:03:24.340Z,46.88
2018-06-12T01:04:24.507Z,47.36
2018-06-12T01:05:24.673Z,47.12
2018-06-12T01:06:24.845Z,43.46
2018-06-12T01:07:25.010Z,52.25
2018-06-12T01:08:25.177Z,40.53
2018-06-12T01:09:25.343Z,45.65
2018-06-12T01:10:25.509Z,48.34
2018-06-12T01:11:25.685Z,55.66
2018-06-12T01:12:25.862Z,49.32
2018-06-12T01:13:26.032Z,45.90
2018-06-12T01:14:26.196Z,47.85
2018-06-12T01:17:58.637Z,49.07
2018-06-12T01:18:58.803Z,42.48
2018-06-12T01:19:58.962Z,54.44
2018-06-12T01:20:59.128Z,49.80
2018-06-12T01:21:59.299Z,48.83
2018-06-12T01:22:59.464Z,50.05
2018-06-12T01:23:59.625Z,52.98
2018-06-12T01:24:59.811Z,49.07
2018-06-12T01:25:59.970Z,50.05
2018-06-12T01:29:42.703Z,50.54
2018-06-12T01:30:42.873Z,47.12
2018-06-12T01:31:43.041Z,46.88
2018-06-12T01:32:43.200Z,46.88
2018-06-12T01:33:43.370Z,50.29
2018-06-12T01:34:43.534Z,45.90
2018-06-12T01:35:43.700Z,47.12
2018-06-12T01:36:43.868Z,43.95
2018-06-12T01:37:44.035Z,50.78
2018-06-12T01:41:16.494Z,54.93
2018-06-12T01:42:16.681Z,67.87
2018-06-12T01:43:16.836Z,50.78
2018-06-12T01:44:17.006Z,52.49
2018-06-12T01:45:17.170Z,46.63
2018-06-12T01:46:17.345Z,54.93
2018-06-12T01:47:17.507Z,54.20
2018-06-12T01:48:17.671Z,43.95
2018-06-12T01:49:17.844Z,47.12
2018-06-12T01:52:50.286Z,45.65
2018-06-12T01:53:50.477Z,45.90
2018-06-12T01:54:50.622Z,45.90
2018-06-12T01:55:50.800Z,53.22
2018-06-12T01:56:53.629Z,45.17
2018-06-12T01:57:51.181Z,50.05
2018-06-12T01:58:51.344Z,64.70
2018-06-12T01:59:51.511Z,48.58
2018-06-12T02:00:51.683Z,54.69
2018-06-12T02:01:51.852Z,52.49
2018-06-12T02:02:52.017Z,61.28
2018-06-12T02:03:52.184Z,50.29
2018-06-12T02:04:52.355Z,51.27
2018-06-12T02:05:52.522Z,42.24
2018-06-12T02:09:34.977Z,44.92
2018-06-12T02:10:35.150Z,45.65
2018-06-12T02:11:35.305Z,48.58
2018-06-12T02:12:35.470Z,55.42
2018-06-12T02:13:35.635Z,56.15
2018-06-12T02:14:35.798Z,44.92
2018-06-12T02:15:35.968Z,65.67
2018-06-12T02:16:36.138Z,49.56
2018-06-12T02:17:36.309Z,48.10
2018-06-12T02:21:19.050Z,53.96
2018-06-12T02:22:19.228Z,43.21
2018-06-12T02:23:19.395Z,44.43
2018-06-12T02:24:19.568Z,46.14
2018-06-12T02:25:19.721Z,46.14
2018-06-12T02:26:19.882Z,63.23
2018-06-12T02:27:20.052Z,67.14
2018-06-12T02:28:21.107Z,65.92
2018-06-12T02:29:20.399Z,66.16
2018-06-12T02:30:20.562Z,70.31
2018-06-12T02:31:20.743Z,48.34
2018-06-12T02:32:20.897Z,51.27
2018-06-12T02:33:21.059Z,58.84
2018-06-12T02:34:21.222Z,49.56
2018-06-12T02:37:53.670Z,47.85
2018-06-12T02:38:53.816Z,54.69
2018-06-12T02:39:54.015Z,55.66
2018-06-12T02:40:54.168Z,52.98
2018-06-12T02:41:54.339Z,50.05
2018-06-12T02:42:54.501Z,48.10
2018-06-12T02:43:54.671Z,50.78
2018-06-12T02:44:54.845Z,56.64
2018-06-12T02:45:55.016Z,54.69
2018-06-12T02:49:37.758Z,57.13
2018-06-12T02:50:37.941Z,51.76
2018-06-12T02:51:38.105Z,55.42
2018-06-12T02:52:38.290Z,51.51
2018-06-12T02:53:38.485Z,53.96
2018-06-12T02:54:38.609Z,57.13
2018-06-12T02:55:38.779Z,58.84
2018-06-12T02:56:38.949Z,59.33
2018-06-12T02:57:39.108Z,52.49
2018-06-12T03:01:11.855Z,51.76
2018-06-12T03:02:12.023Z,59.81
2018-06-12T03:03:12.204Z,64.21
2018-06-12T03:04:12.365Z,55.18
2018-06-12T03:05:12.531Z,62.26
2018-06-12T03:06:12.765Z,57.37
2018-06-12T03:07:12.893Z,60.55
2018-06-12T03:08:13.055Z,55.18
2018-06-12T03:09:13.214Z,54.44
2018-06-12T03:10:13.392Z,52.98
2018-06-12T03:11:13.560Z,61.52
2018-06-12T03:12:13.729Z,55.18
2018-06-12T03:13:13.886Z,68.85
2018-06-12T03:14:14.063Z,73.73
2018-06-12T03:17:46.517Z,58.59
2018-06-12T03:18:46.687Z,63.23
2018-06-12T03:19:46.868Z,59.57
2018-06-12T03:20:47.032Z,69.34
2018-06-12T03:21:47.205Z,71.29
2018-06-12T03:22:47.361Z,77.88
2018-06-12T03:23:47.531Z,74.46
2018-06-12T03:24:47.698Z,70.07
2018-06-12T03:25:47.863Z,67.14
2018-06-12T03:26:48.029Z,62.50
2018-06-12T03:27:48.193Z,80.08
2018-06-12T03:28:48.362Z,70.80
2018-06-12T03:29:48.528Z,78.37
2018-06-12T03:30:48.696Z,92.77
2018-06-12T03:34:21.128Z,74.22
2018-06-12T03:35:21.317Z,73.24
2018-06-12T03:36:21.475Z,67.38
2018-06-12T03:37:21.643Z,66.89
2018-06-12T03:38:21.808Z,68.36
2018-06-12T03:39:21.976Z,67.63
2018-06-12T03:40:22.145Z,68.12
2018-06-12T03:41:22.315Z,66.41
2018-06-12T03:42:22.493Z,71.78
2018-06-12T03:43:22.644Z,64.70
2018-06-12T03:44:22.827Z,69.09
2018-06-12T03:45:22.982Z,63.23
2018-06-12T03:46:23.156Z,69.09
2018-06-12T03:47:23.323Z,62.26
2018-06-12T03:50:55.758Z,59.33
2018-06-12T03:51:55.928Z,71.29
2018-06-12T03:52:56.099Z,64.94
2018-06-12T03:53:56.269Z,71.78
2018-06-12T03:54:56.427Z,83.50
2018-06-12T03:55:56.601Z,69.34
2018-06-12T03:56:56.770Z,70.07
2018-06-12T03:57:56.950Z,67.14
2018-06-12T03:58:57.146Z,60.30
2018-06-12T03:59:57.316Z,66.65
2018-06-12T04:00:57.474Z,71.04
2018-06-12T04:01:57.649Z,82.28
2018-06-12T04:02:57.814Z,69.82
2018-06-12T04:03:57.981Z,77.64
2018-06-12T04:07:40.495Z,55.18
2018-06-12T04:08:40.611Z,67.38
2018-06-12T04:09:40.779Z,61.28
2018-06-12T04:10:40.948Z,68.12
2018-06-12T04:11:41.120Z,54.69
2018-06-12T04:12:41.292Z,74.46
2018-06-12T04:13:41.448Z,60.79
2018-06-12T04:14:41.638Z,63.96
2018-06-12T04:15:41.807Z,69.82
2018-06-12T04:16:41.977Z,65.19
2018-06-12T04:17:42.143Z,68.85
2018-06-12T04:18:42.344Z,66.89
2018-06-12T04:19:42.520Z,70.80
2018-06-12T04:20:42.696Z,59.57
2018-06-12T04:24:25.150Z,60.79
2018-06-12T04:25:25.319Z,61.77
2018-06-12T04:26:26.001Z,67.87
2018-06-12T04:27:25.671Z,83.98
2018-06-12T04:28:25.841Z,76.17
2018-06-12T04:29:26.009Z,67.63
2018-06-12T04:30:26.193Z,74.95
2018-06-12T04:31:26.367Z,72.27
2018-06-12T04:32:26.523Z,76.17
2018-06-12T04:33:26.691Z,81.54
2018-06-12T04:34:26.857Z,64.94
2018-06-12T04:35:27.028Z,77.88
2018-06-12T04:36:27.197Z,76.66
2018-06-12T04:37:27.356Z,76.66
2018-06-12T04:41:09.810Z,83.01
2018-06-12T04:42:09.980Z,71.29
2018-06-12T04:43:10.141Z,75.20
2018-06-12T04:44:10.317Z,73.97
2018-06-12T04:45:10.484Z,65.92
2018-06-12T04:46:10.648Z,62.50
2018-06-12T04:47:10.820Z,68.85
2018-06-12T04:48:10.982Z,72.02
2018-06-12T04:49:11.150Z,63.96
2018-06-12T04:52:53.887Z,65.43
2018-06-12T04:53:54.060Z,65.92
2018-06-12T04:54:54.234Z,73.00
2018-06-12T04:55:54.409Z,74.22
2018-06-12T04:56:54.587Z,74.71
2018-06-12T04:57:54.740Z,64.94
2018-06-12T04:58:54.907Z,65.92
2018-06-12T04:59:55.079Z,71.78
2018-06-12T05:00:55.244Z,76.66
2018-06-12T05:01:55.415Z,74.95
2018-06-12T05:03:03.535Z,67.14
2018-06-12T05:04:02.557Z,72.02
2018-06-12T05:04:55.865Z,67.14
2018-06-12T05:05:56.039Z,81.79
2018-06-12T05:06:56.189Z,77.88
2018-06-12T05:07:56.390Z,82.52
2018-06-12T05:08:56.580Z,64.45
2018-06-12T05:09:56.750Z,70.31
2018-06-12T05:10:57.045Z,68.60
2018-06-12T05:11:57.129Z,82.03
2018-06-12T05:12:57.309Z,65.92
2018-06-12T05:13:57.463Z,68.60
2018-06-12T05:14:57.634Z,75.93
2018-06-12T05:15:57.801Z,68.36
2018-06-12T05:16:57.982Z,69.82
2018-06-12T05:20:30.762Z,70.80
2018-06-12T05:21:30.928Z,76.17
2018-06-12T05:22:31.096Z,64.21
2018-06-12T05:23:31.263Z,61.04
2018-06-12T05:24:31.424Z,65.92
2018-06-12T05:25:31.612Z,67.63
2018-06-12T05:26:31.836Z,61.04
2018-06-12T05:27:31.952Z,77.88
2018-06-12T05:28:32.142Z,68.36
2018-06-12T05:32:14.965Z,85.94
2018-06-12T05:33:15.126Z,65.67
2018-06-12T05:34:15.292Z,71.53
2018-06-12T05:35:15.455Z,80.57
2018-06-12T05:36:15.661Z,75.68
2018-06-12T05:37:15.828Z,72.27
2018-06-12T05:38:15.996Z,70.31
2018-06-12T05:39:16.162Z,71.04
2018-06-12T05:40:16.327Z,76.17
2018-06-12T05:43:59.583Z,69.82
2018-06-12T05:44:59.777Z,73.97
2018-06-12T05:46:01.644Z,68.60
2018-06-12T05:47:00.185Z,67.14
2018-06-12T05:48:00.507Z,63.96
2018-06-12T05:49:00.564Z,74.95
2018-06-12T05:50:00.733Z,65.67
2018-06-12T05:51:00.894Z,72.27
2018-06-12T05:52:01.062Z,79.83
2018-06-12T05:53:01.243Z,65.92
2018-06-12T05:54:01.401Z,65.43
2018-06-12T05:55:01.585Z,67.87
2018-06-12T05:56:01.750Z,66.65
2018-06-12T05:57:01.925Z,76.66
2018-06-12T06:00:45.222Z,75.20
2018-06-12T06:01:44.793Z,69.34
2018-06-12T06:02:44.958Z,67.63
2018-06-12T06:03:45.136Z,69.58
2018-06-12T06:04:45.311Z,80.81
2018-06-12T06:05:45.653Z,69.09
2018-06-12T06:06:45.658Z,73.97
2018-06-12T06:07:45.805Z,74.71
2018-06-12T06:08:45.974Z,72.02
2018-06-12T06:09:46.145Z,78.61
2018-06-12T06:10:46.314Z,71.29
2018-06-12T06:11:46.481Z,80.32
2018-06-12T06:12:46.655Z,71.53
2018-06-12T06:13:46.819Z,72.51
2018-06-12T06:14:54.939Z,68.60
2018-06-12T06:15:47.110Z,83.98
2018-06-12T06:16:47.265Z,85.94
2018-06-12T06:17:47.459Z,75.68
2018-06-12T06:18:47.633Z,78.37
2018-06-12T06:19:47.808Z,82.52
2018-06-12T06:20:55.929Z,80.08
2018-06-12T06:21:49.792Z,79.59
2018-06-12T06:22:48.210Z,64.45
2018-06-12T06:23:48.374Z,63.96
2018-06-12T06:24:48.538Z,67.38
2018-06-12T06:25:48.701Z,70.07
2018-06-12T06:26:48.874Z,77.15
2018-06-12T06:27:49.046Z,70.07
2018-06-12T06:28:49.229Z,73.00
2018-06-12T06:29:56.877Z,73.49
2018-06-12T06:30:49.584Z,72.27
2018-06-12T06:31:49.752Z,76.66
2018-06-12T06:32:49.914Z,70.80
2018-06-12T06:33:50.106Z,65.43
2018-06-12T06:34:50.276Z,63.96
2018-06-12T06:35:57.693Z,81.05
2018-06-12T06:36:50.605Z,68.85
2018-06-12T06:37:50.793Z,79.59
2018-06-12T06:38:50.966Z,80.32
2018-06-12T06:39:51.135Z,68.36
2018-06-12T06:40:51.302Z,65.67
2018-06-12T06:41:51.478Z,76.17
2018-06-12T06:42:51.629Z,68.85
2018-06-12T06:43:51.791Z,73.49
2018-06-12T06:44:51.966Z,68.12
2018-06-12T06:45:52.162Z,77.15
2018-06-12T06:47:01.482Z,71.29
2018-06-12T06:47:52.600Z,66.41
2018-06-12T06:48:52.686Z,68.36
2018-06-12T06:50:00.402Z,69.09
2018-06-12T06:50:53.081Z,64.70
2018-06-12T06:51:53.241Z,73.24
2018-06-12T06:52:53.401Z,65.67
2018-06-12T06:53:53.569Z,69.58
2018-06-12T06:54:53.730Z,70.31
2018-06-12T06:55:53.908Z,65.43
2018-06-12T06:56:54.066Z,65.19
2018-06-12T06:57:54.234Z,74.22
2018-06-12T06:58:54.408Z,76.17
2018-06-12T06:59:55.312Z,73.00
2018-06-12T07:00:54.761Z,74.22
2018-06-12T07:01:54.928Z,77.15
2018-06-12T07:02:55.095Z,79.35
2018-06-12T07:03:55.267Z,76.17
2018-06-12T07:07:27.737Z,67.14
2018-06-12T07:08:27.900Z,74.95
2018-06-12T07:09:28.104Z,75.93
2018-06-12T07:10:28.265Z,72.75
2018-06-12T07:11:28.430Z,72.75
2018-06-12T07:12:28.596Z,66.16
2018-06-12T07:13:28.758Z,78.13
2018-06-12T07:14:28.936Z,66.16
2018-06-12T07:15:29.097Z,69.09
2018-06-12T07:19:01.591Z,66.89
2018-06-12T07:20:01.720Z,85.21
2018-06-12T07:21:01.892Z,73.49
2018-06-12T07:22:02.059Z,66.65
2018-06-12T07:23:02.212Z,73.49
2018-06-12T07:24:02.378Z,65.67
2018-06-12T07:25:02.544Z,64.70
2018-06-12T07:26:02.705Z,73.49
2018-06-12T07:27:02.878Z,68.36
2018-06-12T07:28:03.046Z,67.38
2018-06-12T07:29:03.232Z,81.79
2018-06-12T07:30:03.440Z,70.56
2018-06-12T07:31:03.577Z,67.87
2018-06-12T07:32:03.762Z,64.21
2018-06-12T07:35:46.191Z,66.41
2018-06-12T07:36:46.360Z,71.04
2018-06-12T07:37:46.563Z,70.07
2018-06-12T07:38:47.592Z,79.83
2018-06-12T07:39:46.891Z,104.98
2018-06-12T07:40:47.085Z,66.65
2018-06-12T07:41:47.265Z,67.63
2018-06-12T07:42:47.448Z,74.22
2018-06-12T07:43:47.643Z,69.82
2018-06-12T07:44:47.837Z,76.66
2018-06-12T07:45:48.005Z,67.63
2018-06-12T07:46:48.173Z,69.82
2018-06-12T07:47:48.343Z,66.16
2018-06-12T07:48:48.513Z,71.04
2018-06-12T07:52:31.242Z,73.00
2018-06-12T07:53:31.407Z,72.02
2018-06-12T07:54:31.578Z,73.73
2018-06-12T07:55:31.758Z,64.70
2018-06-12T07:56:31.917Z,67.63
2018-06-12T07:57:33.812Z,70.31
2018-06-12T07:58:32.234Z,62.99
2018-06-12T07:59:32.399Z,76.42
2018-06-12T08:00:34.311Z,72.75
2018-06-12T08:01:32.725Z,75.93
2018-06-12T08:02:32.907Z,74.95
2018-06-12T08:03:33.076Z,78.86
2018-06-12T08:04:33.247Z,70.80
2018-06-12T08:05:33.414Z,68.85
2018-06-12T08:09:16.156Z,64.45
2018-06-12T08:10:16.328Z,73.97
2018-06-12T08:11:16.501Z,73.00
2018-06-12T08:12:16.671Z,77.88
2018-06-12T08:13:16.831Z,69.34
2018-06-12T08:14:17.719Z,74.71
2018-06-12T08:15:17.139Z,69.34
2018-06-12T08:16:17.310Z,69.09
2018-06-12T08:17:20.274Z,77.39
2018-06-12T08:18:17.647Z,69.58
2018-06-12T08:19:17.815Z,73.49
2018-06-12T08:20:17.984Z,66.89
2018-06-12T08:21:18.145Z,73.00
2018-06-12T08:22:18.326Z,73.73
2018-06-12T08:26:00.774Z,66.89
2018-06-12T08:27:00.945Z,73.97
2018-06-12T08:28:01.129Z,72.02
2018-06-12T08:29:01.306Z,68.36
2018-06-12T08:30:01.589Z,78.61
2018-06-12T08:31:01.685Z,72.75
2018-06-12T08:32:01.894Z,81.05
2018-06-12T08:33:02.080Z,70.31
2018-06-12T08:34:02.251Z,66.41
2018-06-12T08:37:44.980Z,69.58
2018-06-12T08:38:45.179Z,65.67
2018-06-12T08:39:45.379Z,63.72
2018-06-12T08:40:45.529Z,63.96
2018-06-12T08:41:45.724Z,69.09
2018-06-12T08:42:45.857Z,69.58
2018-06-12T08:43:46.033Z,73.24
2018-06-12T08:44:46.198Z,69.34
2018-06-12T08:45:46.376Z,72.02
2018-06-12T08:46:46.555Z,77.15
2018-06-12T08:47:46.718Z,81.79
2018-06-12T08:48:46.893Z,70.56
2018-06-12T08:49:47.096Z,68.60
2018-06-12T08:50:54.902Z,70.31
2018-06-12T08:51:47.459Z,69.34
2018-06-12T08:52:47.621Z,76.66
2018-06-12T08:53:47.792Z,68.12
2018-06-12T08:54:47.953Z,71.29
2018-06-12T08:55:48.171Z,72.51
2018-06-12T08:56:55.822Z,75.93
2018-06-12T08:57:48.481Z,72.02
2018-06-12T08:58:48.687Z,65.19
2018-06-12T08:59:48.840Z,65.43
2018-06-12T09:00:49.037Z,73.00
2018-06-12T09:01:49.205Z,76.90
2018-06-12T09:02:49.375Z,76.42
2018-06-12T09:03:49.541Z,70.07
2018-06-12T09:04:49.712Z,87.65
2018-06-12T09:05:49.893Z,74.95
2018-06-12T09:06:50.066Z,68.85
2018-06-12T09:10:32.814Z,73.73
2018-06-12T09:11:32.987Z,71.78
2018-06-12T09:12:33.155Z,76.90
2018-06-12T09:13:33.322Z,68.85
2018-06-12T09:14:33.480Z,66.16
2018-06-12T09:15:33.665Z,61.04
2018-06-12T09:16:33.812Z,64.21
2018-06-12T09:17:34.020Z,68.36
2018-06-12T09:18:34.188Z,77.64
2018-06-12T09:22:06.939Z,93.02
2018-06-12T09:23:07.111Z,71.53
2018-06-12T09:24:07.297Z,70.31
2018-06-12T09:25:07.463Z,63.48
2018-06-12T09:26:07.629Z,69.34
2018-06-12T09:27:18.038Z,66.65
2018-06-12T09:28:07.950Z,59.81
2018-06-12T09:29:11.037Z,69.82
2018-06-12T09:30:08.218Z,68.85
2018-06-12T09:31:08.385Z,72.51
2018-06-12T09:32:08.553Z,66.16
2018-06-12T09:33:08.724Z,67.63
2018-06-12T09:34:08.888Z,76.42
2018-06-12T09:35:09.086Z,71.53
2018-06-12T09:36:09.271Z,69.09
2018-06-12T09:37:09.467Z,68.85
2018-06-12T09:38:09.651Z,63.23
2018-06-12T09:39:17.774Z,77.15
2018-06-12T09:40:09.965Z,64.70
2018-06-12T09:41:10.135Z,68.60
2018-06-12T09:42:10.365Z,72.51
2018-06-12T09:43:10.480Z,73.97
2018-06-12T09:44:10.656Z,77.64
2018-06-12T09:45:10.802Z,76.66
2018-06-12T09:46:10.979Z,67.38
2018-06-12T09:47:11.227Z,68.12
2018-06-12T09:48:11.369Z,80.08
2018-06-12T09:49:11.576Z,66.89
2018-06-12T09:52:44.022Z,67.63
2018-06-12T09:53:44.189Z,66.65
2018-06-12T09:54:44.426Z,72.51
2018-06-12T09:55:44.477Z,75.68
2018-06-12T09:56:44.675Z,69.58
2018-06-12T09:57:46.441Z,70.31
2018-06-12T09:58:45.051Z,68.85
2018-06-12T09:59:45.243Z,74.46
2018-06-12T10:00:54.625Z,72.27
2018-06-12T10:01:45.614Z,75.68
2018-06-12T10:02:45.878Z,72.51
2018-06-12T10:03:45.963Z,73.73
2018-06-12T10:04:46.150Z,73.00
2018-06-12T10:05:46.339Z,68.60
2018-06-12T10:06:46.786Z,65.19
2018-06-12T10:07:46.699Z,68.85
2018-06-12T10:08:46.866Z,72.27
2018-06-12T10:09:47.045Z,67.38
2018-06-12T10:10:47.210Z,66.65
2018-06-12T10:11:47.373Z,66.89
2018-06-12T10:12:47.559Z,65.67
2018-06-12T10:13:49.413Z,69.34
2018-06-12T10:14:47.834Z,67.38
2018-06-12T10:15:48.001Z,71.04
2018-06-12T10:19:30.460Z,74.71
2018-06-12T10:20:30.738Z,75.44
2018-06-12T10:21:30.858Z,65.67
2018-06-12T10:22:31.057Z,76.42
2018-06-12T10:23:31.218Z,79.35
2018-06-12T10:24:39.399Z,75.44
2018-06-12T10:25:31.556Z,63.96
2018-06-12T10:26:31.750Z,68.85
2018-06-12T10:27:31.924Z,78.37
2018-06-12T10:28:32.148Z,77.64
2018-06-12T10:29:32.266Z,73.24
2018-06-12T10:30:39.691Z,72.02
2018-06-12T10:31:32.621Z,83.01
2018-06-12T10:32:32.779Z,71.04
2018-06-12T10:33:32.967Z,66.89
2018-06-12T10:34:33.849Z,76.17
2018-06-12T10:35:33.259Z,69.34
2018-06-12T10:36:33.448Z,68.60
2018-06-12T10:37:33.638Z,76.90
2018-06-12T10:38:33.876Z,64.45
2018-06-12T10:39:33.921Z,68.60
2018-06-12T10:40:34.089Z,70.56
2018-06-12T10:41:34.282Z,76.17
2018-06-12T10:42:34.436Z,75.44
2018-06-12T10:43:34.617Z,64.45
2018-06-12T10:44:34.818Z,83.98
2018-06-12T10:48:07.288Z,67.63
2018-06-12T10:49:07.391Z,69.09
2018-06-12T10:50:07.571Z,70.31
2018-06-12T10:51:07.712Z,75.20
2018-06-12T10:52:07.886Z,77.39
2018-06-12T10:53:08.067Z,77.64
2018-06-12T10:54:08.233Z,73.49
2018-06-12T10:55:08.460Z,71.78
2018-06-12T10:56:08.547Z,66.89
2018-06-12T10:57:17.705Z,73.97
2018-06-12T10:58:08.898Z,71.78
2018-06-12T10:59:09.039Z,74.95
2018-06-12T11:00:16.428Z,73.49
2018-06-12T11:01:09.351Z,76.90
2018-06-12T11:02:09.518Z,77.39
2018-06-12T11:03:09.685Z,75.44
2018-06-12T11:04:09.906Z,71.29
2018-06-12T11:05:10.126Z,77.39
2018-06-12T11:06:10.271Z,78.61
2018-06-12T11:07:10.477Z,78.61
2018-06-12T11:08:10.677Z,72.51
2018-06-12T11:09:10.971Z,80.57
2018-06-12T11:10:11.048Z,71.29
2018-06-12T11:11:11.220Z,77.64
2018-06-12T11:12:19.102Z,78.61
2018-06-12T11:13:11.522Z,67.63
2018-06-12T11:14:11.713Z,70.80
2018-06-12T11:15:11.863Z,73.00
2018-06-12T11:16:12.036Z,79.35
2018-06-12T11:17:12.217Z,74.71
2018-06-12T11:18:20.951Z,70.31
2018-06-12T11:19:15.262Z,77.88
2018-06-12T11:20:13.794Z,72.51
2018-06-12T11:21:15.776Z,86.67
2018-06-12T11:22:13.183Z,76.66
2018-06-12T11:23:21.152Z,77.88
2018-06-12T11:24:13.561Z,69.09
2018-06-12T11:25:13.756Z,69.09
2018-06-12T11:26:13.978Z,69.09
2018-06-12T11:27:14.136Z,69.58
2018-06-12T11:28:14.273Z,74.95
2018-06-12T11:29:14.437Z,80.08
2018-06-12T11:30:14.606Z,79.10
2018-06-12T11:31:14.801Z,65.92
2018-06-12T11:32:14.991Z,63.96
2018-06-12T11:33:16.680Z,71.53
2018-06-12T11:34:15.340Z,66.89
2018-06-12T11:35:18.250Z,67.63
2018-06-12T11:36:16.263Z,65.92
2018-06-12T11:37:15.808Z,77.88
2018-06-12T11:40:59.128Z,65.92
2018-06-12T11:42:01.103Z,66.16
2018-06-12T11:42:58.554Z,71.78
2018-06-12T11:43:58.747Z,75.68
2018-06-12T11:45:06.469Z,62.50
2018-06-12T11:45:59.137Z,70.56
2018-06-12T11:46:59.313Z,72.51
2018-06-12T11:47:59.535Z,73.00
2018-06-12T11:48:59.696Z,69.82
2018-06-12T11:49:59.826Z,72.27
2018-06-12T11:51:00.043Z,68.85
2018-06-12T11:52:00.188Z,71.53
2018-06-12T11:53:00.389Z,70.80
2018-06-12T11:54:00.453Z,74.46
2018-06-12T11:55:00.655Z,72.51
2018-06-12T11:56:00.811Z,78.13
2018-06-12T11:57:00.978Z,77.64
2018-06-12T11:58:01.174Z,75.93
2018-06-12T11:59:01.348Z,72.02
2018-06-12T12:02:43.810Z,73.97
2018-06-12T12:03:43.998Z,62.99
2018-06-12T12:04:44.151Z,69.82
2018-06-12T12:05:44.320Z,70.56
2018-06-12T12:06:44.526Z,67.63
2018-06-12T12:07:44.681Z,74.22
2018-06-12T12:08:44.927Z,71.29
2018-06-12T12:09:45.111Z,63.48
2018-06-12T12:10:45.256Z,69.82
2018-06-12T12:14:17.708Z,68.85
2018-06-12T12:15:18.593Z,74.46
2018-06-12T12:16:18.023Z,66.89
2018-06-12T12:17:18.184Z,76.17
2018-06-12T12:18:18.380Z,68.12
2018-06-12T12:19:18.583Z,69.09
2018-06-12T12:20:18.779Z,71.78
2018-06-12T12:21:18.950Z,71.53
2018-06-12T12:22:26.390Z,79.59
2018-06-12T12:23:19.304Z,68.60
2018-06-12T12:24:19.469Z,67.87
2018-06-12T12:25:19.617Z,70.56
2018-06-12T12:26:20.582Z,72.51
2018-06-12T12:27:20.037Z,70.56
2018-06-12T12:28:27.359Z,75.68
2018-06-12T12:29:20.393Z,68.60
2018-06-12T12:30:20.562Z,74.71
2018-06-12T12:31:20.849Z,74.22
2018-06-12T12:32:20.986Z,73.24
2018-06-12T12:33:21.158Z,78.37
2018-06-12T12:34:21.461Z,68.85
2018-06-12T12:35:21.512Z,74.46
2018-06-12T12:36:21.677Z,71.78
2018-06-12T12:37:21.878Z,68.60
2018-06-12T12:38:22.060Z,68.36
2018-06-12T12:39:22.230Z,80.57
2018-06-12T12:40:22.405Z,75.68
2018-06-12T12:41:22.623Z,67.87
2018-06-12T12:42:22.793Z,73.49
2018-06-12T12:46:06.557Z,83.74
2018-06-12T12:47:06.760Z,70.31
2018-06-12T12:48:06.974Z,69.34
2018-06-12T12:49:07.163Z,69.82
2018-06-12T12:50:07.330Z,82.52
2018-06-12T12:51:07.503Z,71.29
2018-06-12T12:52:07.670Z,72.02
2018-06-12T12:53:07.872Z,76.42
2018-06-12T12:54:08.008Z,70.31
2018-06-12T12:55:08.176Z,65.67
2018-06-12T12:56:08.342Z,67.14
2018-06-12T12:57:08.516Z,66.89
2018-06-12T12:58:08.721Z,74.22
2018-06-12T12:59:09.155Z,73.00
2018-06-12T13:04:09.726Z,68.60
2018-06-12T13:05:09.909Z,74.71
2018-06-12T13:06:10.078Z,81.79
2018-06-12T13:07:10.262Z,69.82
2018-06-12T13:08:10.458Z,68.60
2018-06-12T13:09:10.633Z,71.29
2018-06-12T13:10:10.844Z,69.82
2018-06-12T13:11:11.014Z,76.42
2018-06-12T13:12:11.174Z,73.97
2018-06-12T13:15:53.728Z,69.34
2018-06-12T13:16:53.909Z,78.86
2018-06-12T13:17:54.089Z,73.49
2018-06-12T13:18:54.249Z,71.78
2018-06-12T13:19:54.426Z,66.65
2018-06-12T13:20:54.602Z,69.58
2018-06-12T13:21:54.898Z,76.17
2018-06-12T13:22:54.990Z,67.87
2018-06-12T13:23:55.135Z,73.00
2018-06-12T13:24:55.485Z,75.68
2018-06-12T13:25:55.652Z,75.68
2018-06-12T13:26:55.926Z,71.78
2018-06-12T13:27:56.403Z,72.51
2018-06-12T13:28:57.431Z,70.80
2018-06-12T13:32:31.260Z,69.82
2018-06-12T13:33:31.459Z,72.27
2018-06-12T13:34:31.628Z,68.36
2018-06-12T13:35:31.801Z,68.36
2018-06-12T13:36:31.970Z,72.75
2018-06-12T13:37:32.139Z,68.85
2018-06-12T13:38:33.300Z,72.51
2018-06-12T13:39:35.836Z,65.19
2018-06-12T13:40:32.627Z,82.28
2018-06-12T13:41:32.826Z,88.87
2018-06-12T13:42:33.023Z,82.52
2018-06-12T13:43:33.223Z,67.63
2018-06-12T13:44:33.324Z,71.78
2018-06-12T13:45:33.499Z,68.36
2018-06-12T13:49:05.977Z,70.31
2018-06-12T13:50:06.892Z,81.54
2018-06-12T13:51:07.364Z,66.16
2018-06-12T13:52:06.546Z,77.15
2018-06-12T13:53:06.835Z,67.87
2018-06-12T13:54:13.800Z,73.49
2018-06-12T13:55:09.890Z,65.19
2018-06-12T13:56:07.078Z,69.82
2018-06-12T13:57:07.260Z,74.46
2018-06-12T13:58:08.312Z,73.24
2018-06-12T13:59:07.629Z,73.00
2018-06-12T14:00:08.343Z,73.49
2018-06-12T14:01:08.995Z,74.22
2018-06-12T14:02:08.191Z,71.04
2018-06-12T14:05:40.606Z,82.03
2018-06-12T14:06:40.773Z,90.33
2018-06-12T14:07:40.943Z,64.70
2018-06-12T14:08:41.105Z,72.75
2018-06-12T14:09:41.281Z,67.87
2018-06-12T14:10:41.451Z,65.67
2018-06-12T14:11:48.875Z,82.03
2018-06-12T14:12:41.788Z,71.29
2018-06-12T14:13:42.062Z,68.12
2018-06-12T14:14:43.263Z,67.63
2018-06-12T14:15:43.504Z,71.04
2018-06-12T14:16:42.935Z,71.78
2018-06-12T14:17:42.908Z,71.78
2018-06-12T14:18:43.669Z,73.00
2018-06-12T14:19:42.962Z,75.20
2018-06-12T14:20:43.151Z,73.49
2018-06-12T14:21:43.298Z,73.73
2018-06-12T14:25:15.998Z,70.80
2018-06-12T14:26:16.173Z,73.49
2018-06-12T14:27:16.342Z,79.83
2018-06-12T14:28:16.587Z,67.87
2018-06-12T14:29:16.727Z,77.39
2018-06-12T14:30:16.925Z,75.68
2018-06-12T14:31:17.110Z,71.29
2018-06-12T14:32:17.279Z,67.63
2018-06-12T14:33:17.470Z,79.59
2018-06-12T14:37:10.318Z,76.42
2018-06-12T14:38:10.283Z,66.65
2018-06-12T14:39:10.474Z,78.61
2018-06-12T14:40:10.660Z,75.44
2018-06-12T14:41:10.815Z,73.73
2018-06-12T14:42:11.012Z,68.85
2018-06-12T14:43:11.182Z,66.16
2018-06-12T14:44:11.378Z,67.63
2018-06-12T14:45:11.596Z,69.82
2018-06-12T14:46:11.736Z,71.04
2018-06-12T14:47:11.909Z,69.09
2018-06-12T14:48:12.257Z,70.80
2018-06-12T14:49:12.603Z,68.12
2018-06-12T14:50:12.679Z,84.23
2018-06-12T14:55:10.375Z,88.87
2018-06-12T14:56:03.329Z,69.34
2018-06-12T14:57:03.730Z,71.78
2018-06-12T14:58:03.712Z,79.10
2018-06-12T14:59:11.051Z,70.80
2018-06-12T15:00:03.931Z,81.30
2018-06-12T15:01:04.148Z,82.76
2018-06-12T15:02:04.305Z,73.73
2018-06-12T15:03:04.489Z,73.97
2018-06-12T15:04:04.662Z,75.68
2018-06-12T15:05:04.823Z,67.63